sensor_id;sensor_type;location;lat;lon;timestamp;P1;durP1;ratioP1;P2;durP2;ratioP2
23745;SDS011;12053;48.878;9.632;2024-01-11T00:00:33;68.35;;;30.58;;
23745;SDS011;12053;48.878;9.632;2024-01-11T00:03:00;81.22;;;35.88;;
23745;SDS011;12053;48.878;9.632;2024-01-11T00:05:27;103.70;;;41.35;;
23745;SDS011;12053;48.878;9.632;2024-01-11T00:07:55;90.28;;;37.10;;
23745;SDS011;12053;48.878;9.632;2024-01-11T00:10:22;66.97;;;31.35;;
23745;SDS011;12053;48.878;9.632;2024-01-11T00:12:49;78.88;;;34.42;;
23745;SDS011;12053;48.878;9.632;2024-01-11T00:15:17;72.82;;;32.22;;
23745;SDS011;12053;48.878;9.632;2024-01-11T00:17:44;65.30;;;30.35;;
23745;SDS011;12053;48.878;9.632;2024-01-11T00:20:12;63.67;;;30.00;;
23745;SDS011;12053;48.878;9.632;2024-01-11T00:22:40;59.17;;;29.63;;
23745;SDS011;12053;48.878;9.632;2024-01-11T00:25:07;63.13;;;30.48;;
23745;SDS011;12053;48.878;9.632;2024-01-11T00:27:34;64.10;;;30.10;;
23745;SDS011;12053;48.878;9.632;2024-01-11T00:30:02;63.25;;;30.48;;
23745;SDS011;12053;48.878;9.632;2024-01-11T00:32:29;59.85;;;30.20;;
23745;SDS011;12053;48.878;9.632;2024-01-11T00:34:57;66.32;;;30.38;;
23745;SDS011;12053;48.878;9.632;2024-01-11T00:37:24;65.90;;;30.75;;
23745;SDS011;12053;48.878;9.632;2024-01-11T00:39:51;63.78;;;29.92;;
23745;SDS011;12053;48.878;9.632;2024-01-11T00:42:19;63.35;;;30.60;;
23745;SDS011;12053;48.878;9.632;2024-01-11T00:44:46;62.35;;;30.67;;
23745;SDS011;12053;48.878;9.632;2024-01-11T00:47:13;62.67;;;28.23;;
23745;SDS011;12053;48.878;9.632;2024-01-11T00:49:41;68.65;;;31.08;;
23745;SDS011;12053;48.878;9.632;2024-01-11T00:52:09;59.28;;;29.73;;
23745;SDS011;12053;48.878;9.632;2024-01-11T00:54:39;58.22;;;29.48;;
23745;SDS011;12053;48.878;9.632;2024-01-11T00:57:07;55.75;;;26.73;;
23745;SDS011;12053;48.878;9.632;2024-01-11T00:59:34;62.10;;;30.10;;
23745;SDS011;12053;48.878;9.632;2024-01-11T01:02:01;60.80;;;29.00;;
23745;SDS011;12053;48.878;9.632;2024-01-11T01:04:29;49.83;;;26.05;;
23745;SDS011;12053;48.878;9.632;2024-01-11T01:06:56;58.80;;;28.67;;
23745;SDS011;12053;48.878;9.632;2024-01-11T01:09:23;60.22;;;30.80;;
23745;SDS011;12053;48.878;9.632;2024-01-11T01:11:50;64.57;;;29.00;;
23745;SDS011;12053;48.878;9.632;2024-01-11T01:14:18;62.90;;;30.95;;
23745;SDS011;12053;48.878;9.632;2024-01-11T01:16:45;80.88;;;37.47;;
23745;SDS011;12053;48.878;9.632;2024-01-11T01:19:12;84.88;;;36.70;;
23745;SDS011;12053;48.878;9.632;2024-01-11T01:21:40;132.45;;;46.05;;
23745;SDS011;12053;48.878;9.632;2024-01-11T01:24:07;96.53;;;39.10;;
23745;SDS011;12053;48.878;9.632;2024-01-11T01:26:34;65.05;;;31.85;;
23745;SDS011;12053;48.878;9.632;2024-01-11T01:29:01;67.53;;;33.08;;
23745;SDS011;12053;48.878;9.632;2024-01-11T01:31:29;65.95;;;31.15;;
23745;SDS011;12053;48.878;9.632;2024-01-11T01:33:56;64.38;;;27.40;;
23745;SDS011;12053;48.878;9.632;2024-01-11T01:36:23;61.80;;;30.40;;
23745;SDS011;12053;48.878;9.632;2024-01-11T01:38:51;63.05;;;29.40;;
23745;SDS011;12053;48.878;9.632;2024-01-11T01:41:18;60.42;;;30.80;;
23745;SDS011;12053;48.878;9.632;2024-01-11T01:43:45;63.60;;;30.30;;
23745;SDS011;12053;48.878;9.632;2024-01-11T01:46:13;66.80;;;32.75;;
23745;SDS011;12053;48.878;9.632;2024-01-11T01:48:45;66.22;;;30.70;;
23745;SDS011;12053;48.878;9.632;2024-01-11T01:51:13;71.68;;;32.20;;
23745;SDS011;12053;48.878;9.632;2024-01-11T01:53:40;61.35;;;29.83;;
23745;SDS011;12053;48.878;9.632;2024-01-11T01:56:08;64.97;;;30.88;;
23745;SDS011;12053;48.878;9.632;2024-01-11T01:58:35;70.78;;;32.53;;
23745;SDS011;12053;48.878;9.632;2024-01-11T02:01:03;63.50;;;32.65;;
23745;SDS011;12053;48.878;9.632;2024-01-11T02:03:33;66.60;;;31.13;;
23745;SDS011;12053;48.878;9.632;2024-01-11T02:06:03;69.70;;;34.03;;
23745;SDS011;12053;48.878;9.632;2024-01-11T02:08:32;62.90;;;31.58;;
23745;SDS011;12053;48.878;9.632;2024-01-11T02:11:00;67.72;;;34.85;;
23745;SDS011;12053;48.878;9.632;2024-01-11T02:13:27;65.93;;;31.27;;
23745;SDS011;12053;48.878;9.632;2024-01-11T02:15:55;59.13;;;29.98;;
23745;SDS011;12053;48.878;9.632;2024-01-11T02:18:22;57.30;;;28.98;;
23745;SDS011;12053;48.878;9.632;2024-01-11T02:20:49;67.53;;;31.98;;
23745;SDS011;12053;48.878;9.632;2024-01-11T02:23:17;58.25;;;26.40;;
23745;SDS011;12053;48.878;9.632;2024-01-11T02:25:46;66.95;;;33.78;;
23745;SDS011;12053;48.878;9.632;2024-01-11T02:28:13;121.32;;;47.45;;
23745;SDS011;12053;48.878;9.632;2024-01-11T02:30:40;82.60;;;38.38;;
23745;SDS011;12053;48.878;9.632;2024-01-11T02:33:09;79.00;;;35.90;;
23745;SDS011;12053;48.878;9.632;2024-01-11T02:35:36;78.43;;;37.90;;
23745;SDS011;12053;48.878;9.632;2024-01-11T02:38:09;82.75;;;38.22;;
23745;SDS011;12053;48.878;9.632;2024-01-11T02:40:37;89.78;;;39.78;;
23745;SDS011;12053;48.878;9.632;2024-01-11T02:43:08;92.50;;;40.25;;
23745;SDS011;12053;48.878;9.632;2024-01-11T02:45:36;84.25;;;38.05;;
23745;SDS011;12053;48.878;9.632;2024-01-11T02:48:03;84.60;;;34.38;;
23745;SDS011;12053;48.878;9.632;2024-01-11T02:50:31;79.75;;;38.03;;
23745;SDS011;12053;48.878;9.632;2024-01-11T02:52:58;74.47;;;34.60;;
23745;SDS011;12053;48.878;9.632;2024-01-11T02:55:25;75.72;;;36.13;;
23745;SDS011;12053;48.878;9.632;2024-01-11T02:57:53;69.53;;;34.78;;
23745;SDS011;12053;48.878;9.632;2024-01-11T03:00:20;68.72;;;35.80;;
23745;SDS011;12053;48.878;9.632;2024-01-11T03:02:47;66.13;;;33.42;;
23745;SDS011;12053;48.878;9.632;2024-01-11T03:05:14;66.95;;;32.67;;
23745;SDS011;12053;48.878;9.632;2024-01-11T03:07:42;67.22;;;33.42;;
23745;SDS011;12053;48.878;9.632;2024-01-11T03:10:09;62.13;;;32.85;;
23745;SDS011;12053;48.878;9.632;2024-01-11T03:12:37;63.67;;;31.75;;
23745;SDS011;12053;48.878;9.632;2024-01-11T03:15:04;66.30;;;31.42;;
23745;SDS011;12053;48.878;9.632;2024-01-11T03:17:31;66.47;;;32.47;;
23745;SDS011;12053;48.878;9.632;2024-01-11T03:19:59;61.80;;;32.72;;
23745;SDS011;12053;48.878;9.632;2024-01-11T03:22:26;65.47;;;32.10;;
23745;SDS011;12053;48.878;9.632;2024-01-11T03:24:54;70.97;;;34.03;;
23745;SDS011;12053;48.878;9.632;2024-01-11T03:27:21;63.78;;;31.15;;
23745;SDS011;12053;48.878;9.632;2024-01-11T03:29:49;60.65;;;30.70;;
23745;SDS011;12053;48.878;9.632;2024-01-11T03:32:16;64.82;;;32.95;;
23745;SDS011;12053;48.878;9.632;2024-01-11T03:34:43;63.67;;;31.88;;
23745;SDS011;12053;48.878;9.632;2024-01-11T03:37:11;73.13;;;33.30;;
23745;SDS011;12053;48.878;9.632;2024-01-11T03:39:38;67.07;;;33.90;;
23745;SDS011;12053;48.878;9.632;2024-01-11T03:42:05;80.90;;;36.97;;
23745;SDS011;12053;48.878;9.632;2024-01-11T03:44:32;89.57;;;36.72;;
23745;SDS011;12053;48.878;9.632;2024-01-11T03:47:00;177.05;;;61.55;;
23745;SDS011;12053;48.878;9.632;2024-01-11T03:49:27;71.93;;;34.05;;
23745;SDS011;12053;48.878;9.632;2024-01-11T03:51:54;71.47;;;34.30;;
23745;SDS011;12053;48.878;9.632;2024-01-11T03:54:21;71.50;;;35.40;;
23745;SDS011;12053;48.878;9.632;2024-01-11T03:56:49;72.10;;;34.75;;
23745;SDS011;12053;48.878;9.632;2024-01-11T03:59:16;70.90;;;35.40;;
23745;SDS011;12053;48.878;9.632;2024-01-11T04:01:43;68.82;;;32.13;;
23745;SDS011;12053;48.878;9.632;2024-01-11T04:04:11;71.32;;;35.22;;
23745;SDS011;12053;48.878;9.632;2024-01-11T04:06:38;68.45;;;33.55;;
23745;SDS011;12053;48.878;9.632;2024-01-11T04:09:06;72.47;;;35.25;;
23745;SDS011;12053;48.878;9.632;2024-01-11T04:11:34;70.32;;;33.88;;
23745;SDS011;12053;48.878;9.632;2024-01-11T04:14:01;66.47;;;33.80;;
23745;SDS011;12053;48.878;9.632;2024-01-11T04:16:28;71.45;;;30.92;;
23745;SDS011;12053;48.878;9.632;2024-01-11T04:18:56;66.20;;;33.05;;
23745;SDS011;12053;48.878;9.632;2024-01-11T04:21:23;71.47;;;34.85;;
23745;SDS011;12053;48.878;9.632;2024-01-11T04:23:51;69.70;;;35.38;;
23745;SDS011;12053;48.878;9.632;2024-01-11T04:26:18;70.53;;;34.90;;
23745;SDS011;12053;48.878;9.632;2024-01-11T04:28:45;73.03;;;35.35;;
23745;SDS011;12053;48.878;9.632;2024-01-11T04:31:14;75.28;;;34.60;;
23745;SDS011;12053;48.878;9.632;2024-01-11T04:33:43;68.78;;;33.92;;
23745;SDS011;12053;48.878;9.632;2024-01-11T04:36:11;68.50;;;35.28;;
23745;SDS011;12053;48.878;9.632;2024-01-11T04:38:39;70.40;;;34.50;;
23745;SDS011;12053;48.878;9.632;2024-01-11T04:41:09;69.65;;;34.10;;
23745;SDS011;12053;48.878;9.632;2024-01-11T04:43:37;67.18;;;32.15;;
23745;SDS011;12053;48.878;9.632;2024-01-11T04:46:15;70.00;;;33.70;;
23745;SDS011;12053;48.878;9.632;2024-01-11T04:48:43;71.75;;;34.88;;
23745;SDS011;12053;48.878;9.632;2024-01-11T04:51:11;64.88;;;32.85;;
23745;SDS011;12053;48.878;9.632;2024-01-11T04:53:39;68.05;;;33.88;;
23745;SDS011;12053;48.878;9.632;2024-01-11T04:56:07;68.45;;;33.72;;
23745;SDS011;12053;48.878;9.632;2024-01-11T04:58:35;72.20;;;33.03;;
23745;SDS011;12053;48.878;9.632;2024-01-11T05:01:04;78.30;;;35.55;;
23745;SDS011;12053;48.878;9.632;2024-01-11T05:03:32;69.60;;;34.53;;
23745;SDS011;12053;48.878;9.632;2024-01-11T05:05:59;69.70;;;34.47;;
23745;SDS011;12053;48.878;9.632;2024-01-11T05:08:28;63.03;;;31.13;;
23745;SDS011;12053;48.878;9.632;2024-01-11T05:10:55;69.18;;;34.08;;
23745;SDS011;12053;48.878;9.632;2024-01-11T05:13:23;66.88;;;32.17;;
23745;SDS011;12053;48.878;9.632;2024-01-11T05:15:50;65.72;;;31.40;;
23745;SDS011;12053;48.878;9.632;2024-01-11T05:18:17;68.65;;;34.42;;
23745;SDS011;12053;48.878;9.632;2024-01-11T05:20:44;64.65;;;32.50;;
23745;SDS011;12053;48.878;9.632;2024-01-11T05:23:12;70.93;;;32.45;;
23745;SDS011;12053;48.878;9.632;2024-01-11T05:25:39;63.63;;;32.15;;
23745;SDS011;12053;48.878;9.632;2024-01-11T05:28:06;68.03;;;32.05;;
23745;SDS011;12053;48.878;9.632;2024-01-11T05:30:33;65.93;;;32.38;;
23745;SDS011;12053;48.878;9.632;2024-01-11T05:33:01;64.82;;;29.80;;
23745;SDS011;12053;48.878;9.632;2024-01-11T05:35:29;64.20;;;30.40;;
23745;SDS011;12053;48.878;9.632;2024-01-11T05:37:56;73.53;;;35.97;;
23745;SDS011;12053;48.878;9.632;2024-01-11T05:40:24;68.47;;;33.58;;
23745;SDS011;12053;48.878;9.632;2024-01-11T05:42:51;68.22;;;33.70;;
23745;SDS011;12053;48.878;9.632;2024-01-11T05:45:18;64.25;;;33.35;;
23745;SDS011;12053;48.878;9.632;2024-01-11T05:47:52;68.93;;;33.70;;
23745;SDS011;12053;48.878;9.632;2024-01-11T05:50:20;65.20;;;33.70;;
23745;SDS011;12053;48.878;9.632;2024-01-11T05:52:47;72.25;;;34.25;;
23745;SDS011;12053;48.878;9.632;2024-01-11T05:55:15;73.13;;;35.45;;
23745;SDS011;12053;48.878;9.632;2024-01-11T05:57:42;68.75;;;35.42;;
23745;SDS011;12053;48.878;9.632;2024-01-11T06:00:09;68.05;;;32.67;;
23745;SDS011;12053;48.878;9.632;2024-01-11T06:02:36;65.80;;;33.30;;
23745;SDS011;12053;48.878;9.632;2024-01-11T06:05:04;67.85;;;32.90;;
23745;SDS011;12053;48.878;9.632;2024-01-11T06:07:35;69.80;;;35.17;;
23745;SDS011;12053;48.878;9.632;2024-01-11T06:10:02;72.20;;;34.33;;
23745;SDS011;12053;48.878;9.632;2024-01-11T06:12:31;67.28;;;34.42;;
23745;SDS011;12053;48.878;9.632;2024-01-11T06:14:59;67.75;;;33.05;;
23745;SDS011;12053;48.878;9.632;2024-01-11T06:17:26;68.85;;;34.13;;
23745;SDS011;12053;48.878;9.632;2024-01-11T06:19:54;63.97;;;32.33;;
23745;SDS011;12053;48.878;9.632;2024-01-11T06:22:21;61.80;;;30.23;;
23745;SDS011;12053;48.878;9.632;2024-01-11T06:24:48;63.70;;;32.47;;
23745;SDS011;12053;48.878;9.632;2024-01-11T06:27:15;59.65;;;29.75;;
23745;SDS011;12053;48.878;9.632;2024-01-11T06:29:43;61.75;;;32.30;;
23745;SDS011;12053;48.878;9.632;2024-01-11T06:32:10;63.72;;;30.38;;
23745;SDS011;12053;48.878;9.632;2024-01-11T06:34:37;36.03;;;19.02;;
23745;SDS011;12053;48.878;9.632;2024-01-11T06:37:07;59.80;;;29.48;;
23745;SDS011;12053;48.878;9.632;2024-01-11T06:39:35;65.82;;;32.38;;
23745;SDS011;12053;48.878;9.632;2024-01-11T06:42:02;61.08;;;29.35;;
23745;SDS011;12053;48.878;9.632;2024-01-11T06:44:29;58.97;;;27.58;;
23745;SDS011;12053;48.878;9.632;2024-01-11T06:46:57;62.60;;;30.70;;
23745;SDS011;12053;48.878;9.632;2024-01-11T06:49:24;62.58;;;30.42;;
23745;SDS011;12053;48.878;9.632;2024-01-11T06:51:52;59.08;;;29.52;;
23745;SDS011;12053;48.878;9.632;2024-01-11T06:54:19;62.80;;;31.77;;
23745;SDS011;12053;48.878;9.632;2024-01-11T06:56:46;62.88;;;32.50;;
23745;SDS011;12053;48.878;9.632;2024-01-11T06:59:13;62.67;;;32.10;;
23745;SDS011;12053;48.878;9.632;2024-01-11T07:01:44;62.50;;;32.72;;
23745;SDS011;12053;48.878;9.632;2024-01-11T07:04:12;70.43;;;34.65;;
23745;SDS011;12053;48.878;9.632;2024-01-11T07:06:39;63.08;;;32.00;;
23745;SDS011;12053;48.878;9.632;2024-01-11T07:09:06;62.97;;;31.40;;
23745;SDS011;12053;48.878;9.632;2024-01-11T07:11:34;66.68;;;32.50;;
23745;SDS011;12053;48.878;9.632;2024-01-11T07:14:01;61.92;;;31.67;;
23745;SDS011;12053;48.878;9.632;2024-01-11T07:16:30;80.32;;;37.13;;
23745;SDS011;12053;48.878;9.632;2024-01-11T07:18:57;65.25;;;32.22;;
23745;SDS011;12053;48.878;9.632;2024-01-11T07:21:25;61.45;;;30.00;;
23745;SDS011;12053;48.878;9.632;2024-01-11T07:23:58;62.97;;;31.33;;
23745;SDS011;12053;48.878;9.632;2024-01-11T07:26:26;62.33;;;31.20;;
23745;SDS011;12053;48.878;9.632;2024-01-11T07:28:53;55.53;;;29.55;;
23745;SDS011;12053;48.878;9.632;2024-01-11T07:31:21;58.20;;;28.65;;
23745;SDS011;12053;48.878;9.632;2024-01-11T07:33:48;57.40;;;28.13;;
23745;SDS011;12053;48.878;9.632;2024-01-11T07:36:17;56.75;;;29.40;;
23745;SDS011;12053;48.878;9.632;2024-01-11T07:38:44;52.25;;;28.23;;
23745;SDS011;12053;48.878;9.632;2024-01-11T07:41:11;55.95;;;29.27;;
23745;SDS011;12053;48.878;9.632;2024-01-11T07:43:39;62.15;;;29.70;;
23745;SDS011;12053;48.878;9.632;2024-01-11T07:46:19;47.67;;;25.38;;
23745;SDS011;12053;48.878;9.632;2024-01-11T07:49:01;54.33;;;27.50;;
23745;SDS011;12053;48.878;9.632;2024-01-11T07:51:28;56.63;;;29.85;;
23745;SDS011;12053;48.878;9.632;2024-01-11T07:53:55;59.47;;;29.40;;
23745;SDS011;12053;48.878;9.632;2024-01-11T07:56:23;62.47;;;30.42;;
23745;SDS011;12053;48.878;9.632;2024-01-11T07:58:50;53.53;;;28.00;;
23745;SDS011;12053;48.878;9.632;2024-01-11T08:01:17;60.70;;;31.15;;
23745;SDS011;12053;48.878;9.632;2024-01-11T08:03:45;66.32;;;35.72;;
23745;SDS011;12053;48.878;9.632;2024-01-11T08:06:12;68.07;;;34.90;;
23745;SDS011;12053;48.878;9.632;2024-01-11T08:08:39;76.85;;;38.33;;
23745;SDS011;12053;48.878;9.632;2024-01-11T08:11:07;74.55;;;36.63;;
23745;SDS011;12053;48.878;9.632;2024-01-11T08:13:35;60.70;;;32.13;;
23745;SDS011;12053;48.878;9.632;2024-01-11T08:16:04;51.38;;;29.35;;
23745;SDS011;12053;48.878;9.632;2024-01-11T08:18:36;56.45;;;29.10;;
23745;SDS011;12053;48.878;9.632;2024-01-11T08:21:03;56.33;;;30.10;;
23745;SDS011;12053;48.878;9.632;2024-01-11T08:26:03;55.22;;;27.75;;
23745;SDS011;12053;48.878;9.632;2024-01-11T08:28:30;48.10;;;25.20;;
23745;SDS011;12053;48.878;9.632;2024-01-11T08:30:58;48.92;;;26.52;;
23745;SDS011;12053;48.878;9.632;2024-01-11T08:33:25;47.22;;;24.40;;
23745;SDS011;12053;48.878;9.632;2024-01-11T08:35:53;50.15;;;27.17;;
23745;SDS011;12053;48.878;9.632;2024-01-11T08:38:20;55.30;;;26.70;;
23745;SDS011;12053;48.878;9.632;2024-01-11T08:40:48;51.53;;;27.00;;
23745;SDS011;12053;48.878;9.632;2024-01-11T08:43:15;49.90;;;26.33;;
23745;SDS011;12053;48.878;9.632;2024-01-11T08:45:42;48.65;;;25.85;;
23745;SDS011;12053;48.878;9.632;2024-01-11T08:48:10;46.13;;;25.35;;
23745;SDS011;12053;48.878;9.632;2024-01-11T08:50:40;48.60;;;26.42;;
23745;SDS011;12053;48.878;9.632;2024-01-11T08:53:07;49.38;;;25.98;;
23745;SDS011;12053;48.878;9.632;2024-01-11T08:55:34;48.90;;;26.60;;
23745;SDS011;12053;48.878;9.632;2024-01-11T08:58:02;49.70;;;26.98;;
23745;SDS011;12053;48.878;9.632;2024-01-11T09:00:30;52.95;;;26.48;;
23745;SDS011;12053;48.878;9.632;2024-01-11T09:02:57;51.22;;;26.60;;
23745;SDS011;12053;48.878;9.632;2024-01-11T09:05:24;45.97;;;23.45;;
23745;SDS011;12053;48.878;9.632;2024-01-11T09:07:52;45.20;;;23.63;;
23745;SDS011;12053;48.878;9.632;2024-01-11T09:10:19;45.88;;;25.95;;
23745;SDS011;12053;48.878;9.632;2024-01-11T09:12:47;49.83;;;24.70;;
23745;SDS011;12053;48.878;9.632;2024-01-11T09:15:14;47.72;;;25.25;;
23745;SDS011;12053;48.878;9.632;2024-01-11T09:17:41;43.70;;;24.55;;
23745;SDS011;12053;48.878;9.632;2024-01-11T09:20:09;46.47;;;23.00;;
23745;SDS011;12053;48.878;9.632;2024-01-11T09:22:40;43.50;;;24.67;;
23745;SDS011;12053;48.878;9.632;2024-01-11T09:25:08;48.35;;;24.38;;
23745;SDS011;12053;48.878;9.632;2024-01-11T09:27:36;50.38;;;27.17;;
23745;SDS011;12053;48.878;9.632;2024-01-11T09:30:03;51.35;;;27.38;;
23745;SDS011;12053;48.878;9.632;2024-01-11T09:32:31;39.25;;;20.95;;
23745;SDS011;12053;48.878;9.632;2024-01-11T09:34:58;50.25;;;25.50;;
23745;SDS011;12053;48.878;9.632;2024-01-11T09:37:26;44.95;;;23.77;;
23745;SDS011;12053;48.878;9.632;2024-01-11T09:39:53;50.78;;;25.95;;
23745;SDS011;12053;48.878;9.632;2024-01-11T09:42:20;36.80;;;20.80;;
23745;SDS011;12053;48.878;9.632;2024-01-11T09:44:48;45.92;;;24.15;;
23745;SDS011;12053;48.878;9.632;2024-01-11T09:47:15;47.20;;;24.40;;
23745;SDS011;12053;48.878;9.632;2024-01-11T09:49:44;48.58;;;26.70;;
23745;SDS011;12053;48.878;9.632;2024-01-11T09:52:12;49.00;;;25.25;;
23745;SDS011;12053;48.878;9.632;2024-01-11T09:54:41;43.85;;;22.90;;
23745;SDS011;12053;48.878;9.632;2024-01-11T09:57:09;47.35;;;22.52;;
23745;SDS011;12053;48.878;9.632;2024-01-11T09:59:37;49.05;;;25.25;;
23745;SDS011;12053;48.878;9.632;2024-01-11T10:02:04;42.78;;;22.25;;
23745;SDS011;12053;48.878;9.632;2024-01-11T10:04:35;49.47;;;24.70;;
23745;SDS011;12053;48.878;9.632;2024-01-11T10:07:04;47.10;;;26.30;;
23745;SDS011;12053;48.878;9.632;2024-01-11T10:09:33;51.67;;;25.25;;
23745;SDS011;12053;48.878;9.632;2024-01-11T10:12:00;41.38;;;23.25;;
23745;SDS011;12053;48.878;9.632;2024-01-11T10:14:27;46.78;;;24.75;;
23745;SDS011;12053;48.878;9.632;2024-01-11T10:16:54;44.40;;;24.55;;
23745;SDS011;12053;48.878;9.632;2024-01-11T10:19:22;48.92;;;24.55;;
23745;SDS011;12053;48.878;9.632;2024-01-11T10:21:49;45.85;;;24.02;;
23745;SDS011;12053;48.878;9.632;2024-01-11T10:24:17;45.20;;;22.75;;
23745;SDS011;12053;48.878;9.632;2024-01-11T10:26:46;49.42;;;23.35;;
23745;SDS011;12053;48.878;9.632;2024-01-11T10:29:14;41.15;;;23.15;;
23745;SDS011;12053;48.878;9.632;2024-01-11T10:31:41;47.38;;;25.42;;
23745;SDS011;12053;48.878;9.632;2024-01-11T10:34:09;44.03;;;24.60;;
23745;SDS011;12053;48.878;9.632;2024-01-11T10:36:37;48.10;;;25.70;;
23745;SDS011;12053;48.878;9.632;2024-01-11T10:39:04;42.95;;;24.13;;
23745;SDS011;12053;48.878;9.632;2024-01-11T10:41:38;37.85;;;20.85;;
23745;SDS011;12053;48.878;9.632;2024-01-11T10:44:08;43.45;;;24.48;;
23745;SDS011;12053;48.878;9.632;2024-01-11T10:46:38;38.92;;;20.80;;
23745;SDS011;12053;48.878;9.632;2024-01-11T10:49:05;48.60;;;23.52;;
23745;SDS011;12053;48.878;9.632;2024-01-11T10:51:33;44.22;;;24.75;;
23745;SDS011;12053;48.878;9.632;2024-01-11T10:54:00;37.05;;;20.75;;
23745;SDS011;12053;48.878;9.632;2024-01-11T10:56:28;48.55;;;23.42;;
23745;SDS011;12053;48.878;9.632;2024-01-11T10:58:57;38.97;;;21.00;;
23745;SDS011;12053;48.878;9.632;2024-01-11T11:01:24;38.75;;;22.63;;
23745;SDS011;12053;48.878;9.632;2024-01-11T11:03:52;38.20;;;20.52;;
23745;SDS011;12053;48.878;9.632;2024-01-11T11:06:19;42.67;;;22.67;;
23745;SDS011;12053;48.878;9.632;2024-01-11T11:08:47;40.17;;;22.25;;
23745;SDS011;12053;48.878;9.632;2024-01-11T11:11:14;41.25;;;23.38;;
23745;SDS011;12053;48.878;9.632;2024-01-11T11:13:47;42.30;;;24.35;;
23745;SDS011;12053;48.878;9.632;2024-01-11T11:16:28;43.28;;;24.00;;
23745;SDS011;12053;48.878;9.632;2024-01-11T11:18:55;34.70;;;20.70;;
23745;SDS011;12053;48.878;9.632;2024-01-11T11:21:23;48.75;;;24.98;;
23745;SDS011;12053;48.878;9.632;2024-01-11T11:23:51;38.08;;;22.58;;
23745;SDS011;12053;48.878;9.632;2024-01-11T11:26:18;39.55;;;23.00;;
23745;SDS011;12053;48.878;9.632;2024-01-11T11:28:49;36.90;;;20.70;;
23745;SDS011;12053;48.878;9.632;2024-01-11T11:34:03;42.05;;;23.00;;
23745;SDS011;12053;48.878;9.632;2024-01-11T11:36:32;43.30;;;23.33;;
23745;SDS011;12053;48.878;9.632;2024-01-11T11:39:00;50.88;;;23.77;;
23745;SDS011;12053;48.878;9.632;2024-01-11T11:41:30;34.83;;;19.98;;
23745;SDS011;12053;48.878;9.632;2024-01-11T11:44:02;42.40;;;24.23;;
23745;SDS011;12053;48.878;9.632;2024-01-11T11:46:29;37.10;;;22.10;;
23745;SDS011;12053;48.878;9.632;2024-01-11T11:48:57;38.67;;;20.58;;
23745;SDS011;12053;48.878;9.632;2024-01-11T11:51:25;36.72;;;20.95;;
23745;SDS011;12053;48.878;9.632;2024-01-11T11:53:54;37.55;;;22.20;;
23745;SDS011;12053;48.878;9.632;2024-01-11T11:56:22;41.47;;;21.80;;
23745;SDS011;12053;48.878;9.632;2024-01-11T11:58:50;43.47;;;24.33;;
23745;SDS011;12053;48.878;9.632;2024-01-11T12:01:19;38.97;;;22.20;;
23745;SDS011;12053;48.878;9.632;2024-01-11T12:03:46;41.30;;;24.25;;
23745;SDS011;12053;48.878;9.632;2024-01-11T12:06:17;37.47;;;22.17;;
23745;SDS011;12053;48.878;9.632;2024-01-11T12:08:46;42.22;;;23.20;;
23745;SDS011;12053;48.878;9.632;2024-01-11T12:11:20;40.72;;;23.23;;
23745;SDS011;12053;48.878;9.632;2024-01-11T12:13:48;36.90;;;23.23;;
23745;SDS011;12053;48.878;9.632;2024-01-11T12:16:16;50.53;;;27.58;;
23745;SDS011;12053;48.878;9.632;2024-01-11T12:18:44;60.63;;;27.50;;
23745;SDS011;12053;48.878;9.632;2024-01-11T12:21:12;52.50;;;27.23;;
23745;SDS011;12053;48.878;9.632;2024-01-11T12:23:40;50.58;;;26.30;;
23745;SDS011;12053;48.878;9.632;2024-01-11T12:26:08;42.53;;;23.80;;
23745;SDS011;12053;48.878;9.632;2024-01-11T12:28:40;38.47;;;21.33;;
23745;SDS011;12053;48.878;9.632;2024-01-11T12:31:09;40.55;;;22.70;;
23745;SDS011;12053;48.878;9.632;2024-01-11T12:33:36;37.53;;;22.10;;
23745;SDS011;12053;48.878;9.632;2024-01-11T12:36:08;34.72;;;19.77;;
23745;SDS011;12053;48.878;9.632;2024-01-11T12:38:37;39.58;;;23.13;;
23745;SDS011;12053;48.878;9.632;2024-01-11T12:41:05;35.65;;;20.63;;
23745;SDS011;12053;48.878;9.632;2024-01-11T12:43:33;33.70;;;18.65;;
23745;SDS011;12053;48.878;9.632;2024-01-11T12:46:01;37.75;;;20.83;;
23745;SDS011;12053;48.878;9.632;2024-01-11T12:48:29;43.40;;;22.27;;
23745;SDS011;12053;48.878;9.632;2024-01-11T12:50:57;33.55;;;17.23;;
23745;SDS011;12053;48.878;9.632;2024-01-11T12:53:44;32.88;;;19.63;;
23745;SDS011;12053;48.878;9.632;2024-01-11T12:56:12;34.15;;;20.13;;
23745;SDS011;12053;48.878;9.632;2024-01-11T12:58:42;33.08;;;19.90;;
23745;SDS011;12053;48.878;9.632;2024-01-11T13:01:09;38.22;;;21.00;;
23745;SDS011;12053;48.878;9.632;2024-01-11T13:03:38;37.42;;;22.52;;
23745;SDS011;12053;48.878;9.632;2024-01-11T13:06:06;37.75;;;21.40;;
23745;SDS011;12053;48.878;9.632;2024-01-11T13:08:35;35.72;;;20.98;;
23745;SDS011;12053;48.878;9.632;2024-01-11T13:11:04;36.85;;;21.80;;
23745;SDS011;12053;48.878;9.632;2024-01-11T13:13:34;40.00;;;22.58;;
23745;SDS011;12053;48.878;9.632;2024-01-11T13:16:02;39.28;;;22.35;;
23745;SDS011;12053;48.878;9.632;2024-01-11T13:18:32;38.80;;;22.38;;
23745;SDS011;12053;48.878;9.632;2024-01-11T13:21:00;39.25;;;23.30;;
23745;SDS011;12053;48.878;9.632;2024-01-11T13:23:29;38.83;;;22.35;;
23745;SDS011;12053;48.878;9.632;2024-01-11T13:25:57;40.08;;;22.42;;
23745;SDS011;12053;48.878;9.632;2024-01-11T13:28:24;35.95;;;21.92;;
23745;SDS011;12053;48.878;9.632;2024-01-11T13:30:53;39.97;;;22.90;;
23745;SDS011;12053;48.878;9.632;2024-01-11T13:33:21;36.40;;;21.73;;
23745;SDS011;12053;48.878;9.632;2024-01-11T13:35:50;39.00;;;22.45;;
23745;SDS011;12053;48.878;9.632;2024-01-11T13:38:18;49.97;;;27.00;;
23745;SDS011;12053;48.878;9.632;2024-01-11T13:40:50;38.53;;;22.85;;
23745;SDS011;12053;48.878;9.632;2024-01-11T13:43:17;37.55;;;22.50;;
23745;SDS011;12053;48.878;9.632;2024-01-11T13:45:45;38.22;;;22.52;;
23745;SDS011;12053;48.878;9.632;2024-01-11T13:48:12;40.15;;;23.15;;
23745;SDS011;12053;48.878;9.632;2024-01-11T13:50:39;37.33;;;22.42;;
23745;SDS011;12053;48.878;9.632;2024-01-11T13:53:07;40.55;;;23.35;;
23745;SDS011;12053;48.878;9.632;2024-01-11T13:55:34;46.95;;;24.80;;
23745;SDS011;12053;48.878;9.632;2024-01-11T13:58:06;51.10;;;28.53;;
23745;SDS011;12053;48.878;9.632;2024-01-11T14:00:34;43.90;;;25.95;;
23745;SDS011;12053;48.878;9.632;2024-01-11T14:03:02;45.03;;;27.90;;
23745;SDS011;12053;48.878;9.632;2024-01-11T14:05:31;53.13;;;30.23;;
23745;SDS011;12053;48.878;9.632;2024-01-11T14:07:59;49.00;;;28.92;;
23745;SDS011;12053;48.878;9.632;2024-01-11T14:10:27;44.95;;;27.42;;
23745;SDS011;12053;48.878;9.632;2024-01-11T14:12:55;45.22;;;26.67;;
23745;SDS011;12053;48.878;9.632;2024-01-11T14:15:22;45.28;;;26.98;;
23745;SDS011;12053;48.878;9.632;2024-01-11T14:17:52;44.90;;;27.08;;
23745;SDS011;12053;48.878;9.632;2024-01-11T14:20:20;43.75;;;26.52;;
23745;SDS011;12053;48.878;9.632;2024-01-11T14:22:49;38.33;;;24.05;;
23745;SDS011;12053;48.878;9.632;2024-01-11T14:25:21;46.75;;;28.55;;
23745;SDS011;12053;48.878;9.632;2024-01-11T14:27:48;47.70;;;30.33;;
23745;SDS011;12053;48.878;9.632;2024-01-11T14:30:16;41.88;;;26.60;;